createdAt,value
2019-03-30T15:02:39.407Z,17.90
2019-03-30T15:05:11.431Z,17.80
2019-03-30T15:07:41.373Z,17.80
2019-03-30T15:10:13.319Z,17.80
2019-03-30T15:12:44.584Z,17.70
2019-03-30T15:15:15.982Z,17.70
2019-03-30T15:17:46.956Z,17.70
2019-03-30T15:20:17.686Z,17.70
2019-03-30T15:22:48.349Z,17.60
2019-03-30T15:25:20.478Z,17.70
2019-03-30T15:27:51.125Z,17.70
2019-03-30T15:30:21.723Z,17.70
2019-03-30T15:32:51.954Z,17.60
2019-03-30T15:35:22.750Z,17.60
2019-03-30T15:37:53.380Z,17.60
2019-03-30T15:40:25.218Z,17.60
2019-03-30T15:42:56.134Z,17.60
2019-03-30T15:45:26.654Z,17.60
2019-03-30T15:47:57.655Z,17.60
2019-03-30T15:50:27.558Z,17.50
2019-03-30T15:52:58.542Z,17.50
2019-03-30T15:55:29.903Z,17.40
2019-03-30T15:58:00.418Z,17.40
2019-03-30T16:00:31.358Z,17.40
2019-03-30T16:03:02.343Z,17.30
2019-03-30T16:05:33.324Z,17.30
2019-03-30T16:08:04.598Z,17.30
2019-03-30T16:10:35.127Z,17.30
2019-03-30T16:13:06.085Z,17.30
2019-03-30T16:15:37.508Z,17.20
2019-03-30T16:18:08.469Z,17.20
2019-03-30T16:20:38.661Z,17.20
2019-03-30T16:23:08.571Z,17.10
2019-03-30T16:25:39.524Z,17.00
2019-03-30T16:28:10.577Z,17.00
2019-03-30T16:30:41.225Z,16.90
2019-03-30T16:33:12.536Z,16.90
2019-03-30T16:35:42.805Z,16.80
2019-03-30T16:38:14.090Z,16.60
2019-03-30T16:40:45.049Z,16.50
2019-03-30T16:43:15.698Z,16.30
2019-03-30T16:45:46.986Z,16.20
2019-03-30T16:48:17.972Z,16.10
2019-03-30T16:50:48.617Z,15.90
2019-03-30T16:53:18.925Z,15.80
2019-03-30T16:55:51.086Z,15.60
2019-03-30T16:58:21.920Z,15.50
2019-03-30T17:00:56.776Z,15.40
2019-03-30T17:03:25.259Z,15.30
2019-03-30T17:05:56.290Z,15.20
2019-03-30T17:08:27.232Z,15.10
2019-03-30T17:10:57.839Z,15.00
2019-03-30T17:13:28.568Z,14.80
2019-03-30T17:15:59.220Z,14.60
2019-03-30T17:18:29.776Z,14.40
2019-03-30T17:21:00.025Z,14.20
2019-03-30T17:23:30.721Z,14.00
2019-03-30T17:26:01.723Z,13.70
2019-03-30T17:28:32.674Z,13.50
2019-03-30T17:31:03.591Z,13.30
2019-03-30T17:33:36.468Z,13.00
2019-03-30T17:36:07.527Z,12.80
2019-03-30T17:38:37.862Z,12.70
2019-03-30T17:41:08.134Z,12.50
2019-03-30T17:43:38.832Z,12.40
2019-03-30T17:46:09.924Z,12.20
2019-03-30T17:48:39.787Z,12.20
2019-03-30T17:51:12.387Z,12.10
2019-03-30T17:53:44.187Z,12.00
2019-03-30T17:56:14.850Z,11.90
2019-03-30T17:58:46.719Z,11.80
2019-03-30T18:01:18.040Z,11.70
2019-03-30T18:03:49.064Z,11.70
2019-03-30T18:06:20.369Z,11.60
2019-03-30T18:08:51.058Z,11.60
2019-03-30T18:11:21.281Z,11.50
2019-03-30T18:13:52.150Z,11.50
2019-03-30T18:16:24.878Z,11.70
2019-03-30T18:18:56.190Z,11.70
2019-03-30T18:21:26.786Z,11.50
2019-03-30T18:23:58.162Z,11.40
2019-03-30T18:26:28.852Z,11.30
2019-03-30T18:29:00.212Z,11.30
2019-03-30T18:31:30.360Z,11.30
2019-03-30T18:34:01.079Z,11.30
2019-03-30T18:36:33.270Z,11.20
2019-03-30T18:39:09.811Z,11.20
2019-03-30T18:41:38.274Z,11.20
2019-03-30T18:44:09.603Z,11.10
2019-03-30T18:46:40.200Z,11.00
2019-03-30T18:49:10.554Z,10.90
2019-03-30T18:51:43.400Z,10.70
2019-03-30T18:54:13.874Z,10.60
2019-03-30T18:56:44.857Z,10.50
2019-03-30T18:59:15.796Z,10.40
2019-03-30T19:01:46.703Z,10.30
2019-03-30T19:04:17.999Z,10.20
2019-03-30T19:06:51.577Z,10.10
2019-03-30T19:09:22.216Z,10.10
2019-03-30T19:11:53.465Z,10.10
2019-03-30T19:14:26.768Z,10.10
2019-03-30T19:16:56.861Z,10.00
2019-03-30T19:19:28.164Z,9.90
2019-03-30T19:21:58.893Z,9.90
2019-03-30T19:24:29.241Z,9.90
2019-03-30T19:26:59.484Z,9.80
2019-03-30T19:29:30.467Z,9.70
2019-03-30T19:32:01.474Z,9.70
2019-03-30T19:34:32.818Z,9.70
2019-03-30T19:37:03.069Z,9.70
2019-03-30T19:39:34.090Z,9.60
2019-03-30T19:42:05.092Z,9.60
2019-03-30T19:44:35.700Z,9.70
2019-03-30T19:47:06.268Z,9.60
2019-03-30T19:49:36.791Z,9.70
2019-03-30T19:52:06.682Z,9.60
2019-03-30T19:54:37.697Z,9.60
2019-03-30T19:57:08.964Z,9.60
2019-03-30T19:59:39.540Z,9.50
2019-03-30T20:02:12.912Z,9.50
2019-03-30T20:04:43.582Z,9.50
2019-03-30T20:07:13.431Z,9.40
2019-03-30T20:09:44.731Z,9.50
2019-03-30T20:12:16.031Z,9.50
2019-03-30T20:14:46.883Z,9.40
2019-03-30T20:17:18.212Z,9.30
2019-03-30T20:19:49.196Z,9.20
2019-03-30T20:22:19.433Z,9.20
2019-03-30T20:24:50.381Z,9.10
2019-03-30T20:27:20.995Z,9.10
2019-03-30T20:29:51.922Z,9.10
2019-03-30T20:32:22.876Z,9.10
2019-03-30T20:34:57.148Z,9.10
2019-03-30T20:37:27.417Z,9.10
2019-03-30T20:39:58.666Z,9.10
2019-03-30T20:42:29.591Z,9.10
2019-03-30T20:45:01.566Z,9.00
2019-03-30T20:47:32.516Z,9.10
2019-03-30T20:50:03.855Z,9.00
2019-03-30T20:52:36.534Z,8.90
2019-03-30T20:55:07.996Z,8.80
2019-03-30T20:57:39.047Z,8.80
